Time;durP1;ratioP1;P1;durP2;ratioP2;P2;SDS_P1;SDS_P2;PMS_P1;PMS_P2;Temp;Humidity;BMP_temperature;BMP_pressure;BME280_temperature;BME280_humidity;BME280_pressure;Samples;Min_cycle;Max_cycle;Signal;HPM_P1;HPM_P2
2021/06/25 00:00:40;;;;;;;9.40;9.00;;;25.20;96.20;;;;;;3617056;39;20532;-65
2021/06/25 00:03:08;;;;;;;8.80;8.47;;;25.20;96.20;;;;;;3616288;39;20487;-65
2021/06/25 00:05:35;;;;;;;9.17;8.87;;;25.20;96.30;;;;;;3616042;39;20568;-65
2021/06/25 00:08:04;;;;;;;9.13;8.73;;;25.20;96.30;;;;;;3615763;39;20611;-65
2021/06/25 00:10:32;;;;;;;9.20;8.80;;;25.20;96.30;;;;;;3606925;39;20485;-65
2021/06/25 00:13:00;;;;;;;9.00;8.60;;;25.20;96.30;;;;;;3616255;39;20471;-65
2021/06/25 00:15:27;;;;;;;9.30;9.00;;;25.20;96.30;;;;;;3616375;39;20476;-65
2021/06/25 00:17:57;;;;;;;9.90;9.50;;;25.20;96.30;;;;;;3606559;39;20464;-65
2021/06/25 00:20:26;;;;;;;9.73;9.33;;;25.20;96.30;;;;;;3613472;39;20490;-65
2021/06/25 00:22:55;;;;;;;9.13;8.53;;;25.20;96.30;;;;;;3615932;39;20494;-65
2021/06/25 00:25:25;;;;;;;9.17;8.77;;;25.20;96.30;;;;;;3615909;39;20922;-65
2021/06/25 00:27:52;;;;;;;9.37;9.07;;;25.20;96.30;;;;;;3615398;39;20491;-65
2021/06/25 00:30:20;;;;;;;9.10;8.80;;;25.20;96.30;;;;;;3615728;39;20477;-65
2021/06/25 00:32:48;;;;;;;8.97;8.57;;;25.20;96.30;;;;;;3615792;39;20506;-65
2021/06/25 00:35:16;;;;;;;8.47;8.07;;;25.20;96.30;;;;;;3616233;39;20902;-65
2021/06/25 00:37:44;;;;;;;9.87;9.37;;;25.20;96.30;;;;;;3616014;39;20495;-65
2021/06/25 00:40:12;;;;;;;9.00;8.70;;;25.20;96.20;;;;;;3614894;39;21074;-65
2021/06/25 00:42:41;;;;;;;8.80;8.50;;;25.20;96.20;;;;;;3615461;39;20696;-65
2021/06/25 00:45:13;;;;;;;9.30;8.80;;;25.20;96.20;;;;;;3615316;39;20983;-65
2021/06/25 00:47:43;;;;;;;8.73;8.43;;;25.20;96.20;;;;;;3615896;39;20576;-65
2021/06/25 00:50:12;;;;;;;9.27;8.77;;;25.20;96.20;;;;;;3615474;39;20467;-65
2021/06/25 00:52:39;;;;;;;8.60;8.30;;;25.20;96.10;;;;;;3615445;39;20568;-65
2021/06/25 00:55:09;;;;;;;8.57;8.27;;;25.20;96.10;;;;;;3615009;39;20478;-65
2021/06/25 00:57:36;;;;;;;9.13;8.73;;;25.20;96.10;;;;;;3615943;39;20556;-65
2021/06/25 01:00:07;;;;;;;9.23;8.83;;;25.20;96.10;;;;;;3616480;39;20479;-65
2021/06/25 01:02:35;;;;;;;9.13;8.70;;;25.20;96.10;;;;;;3608074;39;20580;-65
2021/06/25 01:05:04;;;;;;;8.67;8.23;;;25.20;96.10;;;;;;3615750;39;20490;-65
2021/06/25 01:07:32;;;;;;;9.30;8.80;;;25.20;96.10;;;;;;3616140;39;20467;-65
2021/06/25 01:09:59;;;;;;;9.07;8.57;;;25.20;96.10;;;;;;3615746;39;20495;-65
2021/06/25 01:12:27;;;;;;;8.93;8.53;;;25.20;96.10;;;;;;3615721;39;20486;-65
2021/06/25 01:14:55;;;;;;;8.87;8.53;;;25.20;96.10;;;;;;3616141;39;20736;-65
2021/06/25 01:17:31;;;;;;;8.50;8.20;;;25.20;96.00;;;;;;3616043;39;20483;-65
2021/06/25 01:20:00;;;;;;;9.07;8.73;;;25.20;96.00;;;;;;3615960;39;20474;-65
2021/06/25 01:22:35;;;;;;;8.93;8.63;;;25.20;95.90;;;;;;3615366;39;20930;-65
2021/06/25 01:25:07;;;;;;;8.90;8.50;;;25.20;95.90;;;;;;3616337;39;20494;-65
2021/06/25 01:27:35;;;;;;;8.90;8.50;;;25.20;95.90;;;;;;3615144;39;20483;-65
2021/06/25 01:30:07;;;;;;;8.90;8.40;;;25.20;95.90;;;;;;3615699;39;20487;-65
2021/06/25 01:32:34;;;;;;;8.87;8.57;;;25.20;95.80;;;;;;3606578;39;20491;-65
2021/06/25 01:35:02;;;;;;;9.13;8.73;;;25.20;95.70;;;;;;3605206;39;20492;-65
2021/06/25 01:37:34;;;;;;;8.77;8.47;;;25.10;95.70;;;;;;3600027;39;20785;-65
2021/06/25 01:40:02;;;;;;;7.97;7.67;;;25.20;95.60;;;;;;3615733;39;20575;-65
2021/06/25 01:42:32;;;;;;;8.57;8.17;;;25.10;95.50;;;;;;3615975;39;20491;-65
2021/06/25 01:45:03;;;;;;;8.13;7.83;;;25.20;95.60;;;;;;3615249;39;20717;-65
2021/06/25 01:47:30;;;;;;;8.40;8.10;;;25.10;95.50;;;;;;3615517;39;20470;-65
2021/06/25 01:49:58;;;;;;;8.00;7.70;;;25.10;95.50;;;;;;3615545;39;20479;-65
2021/06/25 01:52:25;;;;;;;8.50;8.20;;;25.20;95.50;;;;;;3615502;39;20478;-65
2021/06/25 01:54:53;;;;;;;8.40;8.10;;;25.20;95.50;;;;;;3615643;39;20917;-65
2021/06/25 01:57:20;;;;;;;7.90;7.60;;;25.10;95.40;;;;;;3615231;39;21005;-65
2021/06/25 01:59:48;;;;;;;8.90;8.60;;;25.10;95.40;;;;;;3615384;39;20471;-65
2021/06/25 02:02:15;;;;;;;8.50;8.20;;;25.10;95.40;;;;;;3615921;39;20475;-65
2021/06/25 02:04:42;;;;;;;8.10;7.80;;;25.10;95.40;;;;;;3615208;39;20483;-65
2021/06/25 02:07:09;;;;;;;8.17;7.90;;;25.10;95.40;;;;;;3615085;39;20463;-65
2021/06/25 02:09:36;;;;;;;8.70;8.30;;;25.10;95.40;;;;;;3615013;39;20900;-65
2021/06/25 02:12:06;;;;;;;8.63;8.33;;;25.10;95.40;;;;;;3614978;39;20473;-65
2021/06/25 02:14:33;;;;;;;8.00;7.80;;;25.10;95.30;;;;;;3615380;39;20475;-65
2021/06/25 02:17:01;;;;;;;8.27;7.97;;;25.10;95.60;;;;;;3616040;39;20809;-65
2021/06/25 02:19:28;;;;;;;8.50;8.20;;;25.10;95.20;;;;;;3614913;39;20486;-65
2021/06/25 02:21:55;;;;;;;8.20;7.80;;;25.20;95.20;;;;;;3615261;39;20869;-65
2021/06/25 02:24:22;;;;;;;8.00;7.70;;;25.10;95.20;;;;;;3615717;39;20470;-65
2021/06/25 02:26:49;;;;;;;8.50;8.30;;;25.20;95.10;;;;;;3615566;39;20533;-65
2021/06/25 02:29:18;;;;;;;8.47;8.17;;;25.20;95.10;;;;;;3615478;39;20483;-65
2021/06/25 02:31:45;;;;;;;8.30;8.10;;;25.10;95.10;;;;;;3615014;39;20478;-65
2021/06/25 02:34:12;;;;;;;8.90;8.60;;;25.10;95.10;;;;;;3614720;39;20471;-65
2021/06/25 02:36:40;;;;;;;8.60;8.23;;;25.10;95.10;;;;;;3614804;39;20482;-65
2021/06/25 02:39:07;;;;;;;8.30;8.10;;;25.10;95.10;;;;;;3614885;39;20579;-65
2021/06/25 02:41:34;;;;;;;8.60;8.30;;;25.10;95.10;;;;;;3616001;39;20485;-65
2021/06/25 02:44:02;;;;;;;9.03;8.73;;;25.10;95.10;;;;;;3615614;39;20503;-65
2021/06/25 02:46:31;;;;;;;8.47;8.27;;;25.10;95.10;;;;;;3614855;39;20479;-65
2021/06/25 02:48:58;;;;;;;8.80;8.50;;;25.10;95.00;;;;;;3617933;39;20472;-65
2021/06/25 02:51:25;;;;;;;8.70;8.40;;;25.10;95.00;;;;;;3617822;39;20478;-65
2021/06/25 02:53:52;;;;;;;9.40;9.00;;;25.10;95.00;;;;;;3617646;39;20475;-65
2021/06/25 02:56:20;;;;;;;8.90;8.60;;;25.10;95.00;;;;;;3617026;39;20476;-65
2021/06/25 02:58:47;;;;;;;8.80;8.50;;;25.10;94.90;;;;;;3616742;39;20487;-65
2021/06/25 03:01:14;;;;;;;9.07;8.57;;;25.10;94.90;;;;;;3606827;39;20496;-65
2021/06/25 03:03:43;;;;;;;9.60;9.10;;;25.10;95.00;;;;;;3616668;39;20474;-65
2021/06/25 03:06:10;;;;;;;9.90;9.40;;;25.10;94.90;;;;;;3608235;39;20474;-65
2021/06/25 03:08:37;;;;;;;8.33;8.03;;;25.10;94.90;;;;;;3617292;39;20926;-65
2021/06/25 03:11:05;;;;;;;8.80;8.50;;;25.10;94.90;;;;;;3617772;39;20476;-65
2021/06/25 03:13:32;;;;;;;8.50;8.30;;;25.10;94.90;;;;;;3617363;39;20478;-65
2021/06/25 03:15:59;;;;;;;9.40;9.10;;;25.10;94.90;;;;;;3616843;39;20486;-65
2021/06/25 03:18:27;;;;;;;9.23;8.93;;;25.10;94.90;;;;;;3617337;39;20811;-65
2021/06/25 03:20:55;;;;;;;9.80;9.50;;;25.10;94.90;;;;;;3607507;39;20488;-65
2021/06/25 03:23:22;;;;;;;9.67;9.37;;;25.10;94.90;;;;;;3606603;39;20492;-65
2021/06/25 03:25:51;;;;;;;10.50;10.20;;;25.10;94.80;;;;;;3605732;39;20512;-65
2021/06/25 03:28:19;;;;;;;9.83;9.53;;;25.10;94.80;;;;;;3605480;39;20468;-65
2021/06/25 03:30:46;;;;;;;9.90;9.50;;;25.10;94.80;;;;;;3605811;39;20475;-65
2021/06/25 03:33:13;;;;;;;10.80;10.20;;;25.10;94.80;;;;;;3606180;39;20468;-65
2021/06/25 03:35:41;;;;;;;9.97;9.67;;;25.10;94.80;;;;;;3606516;39;20504;-65
2021/06/25 03:38:09;;;;;;;9.80;9.50;;;25.10;94.80;;;;;;3606814;39;20557;-65
2021/06/25 03:40:37;;;;;;;10.50;10.10;;;25.10;94.70;;;;;;3617037;39;20503;-65
2021/06/25 03:43:06;;;;;;;10.10;9.80;;;25.10;94.70;;;;;;3616110;39;20475;-65
2021/06/25 03:45:33;;;;;;;9.73;9.43;;;25.10;94.70;;;;;;3607802;39;20479;-65
2021/06/25 03:48:00;;;;;;;10.00;9.70;;;25.10;94.70;;;;;;3616070;39;20476;-65
2021/06/25 03:50:27;;;;;;;10.43;10.03;;;25.10;94.70;;;;;;3616296;39;20473;-65
2021/06/25 03:52:55;;;;;;;11.63;11.20;;;25.10;94.70;;;;;;3605582;39;20472;-65
2021/06/25 03:55:25;;;;;;;11.30;10.90;;;25.10;94.60;;;;;;3605193;39;20523;-65
2021/06/25 03:57:52;;;;;;;10.60;10.20;;;25.10;94.60;;;;;;3605852;39;21080;-65
2021/06/25 04:00:20;;;;;;;10.60;10.20;;;25.10;94.60;;;;;;3613582;39;20705;-65
2021/06/25 04:02:48;;;;;;;10.17;9.87;;;25.10;94.60;;;;;;3615875;39;20550;-65
2021/06/25 04:05:16;;;;;;;10.63;10.33;;;25.10;94.60;;;;;;3615124;39;20486;-65
2021/06/25 04:07:44;;;;;;;10.80;10.13;;;25.00;94.60;;;;;;3615639;39;20587;-65
2021/06/25 04:10:13;;;;;;;11.13;10.70;;;25.10;94.60;;;;;;3614898;39;20490;-65
2021/06/25 04:12:42;;;;;;;11.10;10.77;;;25.00;94.60;;;;;;3614382;39;20499;-65
2021/06/25 04:15:10;;;;;;;11.50;11.10;;;25.10;94.60;;;;;;3614509;39;20479;-65
2021/06/25 04:17:38;;;;;;;11.63;11.13;;;25.10;94.60;;;;;;3605141;39;20490;-65
2021/06/25 04:20:07;;;;;;;11.00;10.70;;;25.10;94.50;;;;;;3614122;39;20479;-65
2021/06/25 04:22:34;;;;;;;11.37;11.07;;;25.10;94.50;;;;;;3604969;39;20542;-65
2021/06/25 04:25:01;;;;;;;23.43;11.97;;;25.10;94.50;;;;;;3605751;39;20540;-65
2021/06/25 04:27:28;;;;;;;11.70;11.30;;;25.00;94.50;;;;;;3613297;39;20511;-65
2021/06/25 04:29:57;;;;;;;11.87;11.37;;;25.10;94.50;;;;;;3613313;39;20490;-65
2021/06/25 04:32:24;;;;;;;11.80;11.20;;;25.10;94.50;;;;;;3612275;39;20571;-65
2021/06/25 04:34:51;;;;;;;11.40;11.00;;;25.10;94.50;;;;;;3612306;39;20471;-65
2021/06/25 04:37:19;;;;;;;11.90;11.50;;;25.10;94.50;;;;;;3614297;39;20838;-65
2021/06/25 04:39:47;;;;;;;10.70;10.40;;;25.10;94.50;;;;;;3612040;39;20467;-65
2021/06/25 04:42:14;;;;;;;11.10;10.80;;;25.10;94.50;;;;;;3612888;39;20812;-65
2021/06/25 04:44:41;;;;;;;11.93;11.53;;;25.10;94.50;;;;;;3612485;39;20467;-65
2021/06/25 04:47:10;;;;;;;10.63;10.33;;;25.00;94.40;;;;;;3612809;39;20487;-65
2021/06/25 04:49:39;;;;;;;11.57;11.07;;;25.00;94.50;;;;;;3612155;39;20476;-65
2021/06/25 04:52:07;;;;;;;11.30;10.90;;;25.10;94.50;;;;;;3612625;39;20874;-65
2021/06/25 04:54:35;;;;;;;10.90;10.30;;;25.00;94.80;;;;;;3612677;39;20483;-65
2021/06/25 04:57:02;;;;;;;10.73;10.40;;;25.00;94.50;;;;;;3611061;39;20490;-65
2021/06/25 04:59:30;;;;;;;11.40;10.90;;;25.00;94.40;;;;;;3609579;39;20564;-65
2021/06/25 05:01:57;;;;;;;10.40;10.00;;;25.10;94.50;;;;;;3610195;39;20483;-65
2021/06/25 05:04:26;;;;;;;10.77;10.33;;;25.00;94.40;;;;;;3611766;39;20480;-65
2021/06/25 05:06:54;;;;;;;10.80;10.10;;;25.10;94.50;;;;;;3609794;39;20495;-65
2021/06/25 05:09:21;;;;;;;10.20;9.90;;;25.10;94.50;;;;;;3608905;39;21056;-65
2021/06/25 05:11:48;;;;;;;10.90;10.40;;;25.10;94.40;;;;;;3608901;39;20523;-65
2021/06/25 05:14:15;;;;;;;10.27;9.97;;;25.00;94.40;;;;;;3610339;39;20483;-65
2021/06/25 05:16:43;;;;;;;11.10;10.50;;;25.10;94.40;;;;;;3609070;39;20515;-65
2021/06/25 05:19:10;;;;;;;9.83;9.53;;;25.00;94.40;;;;;;3608210;39;20491;-65
2021/06/25 05:21:39;;;;;;;10.63;10.23;;;25.10;94.50;;;;;;3609361;39;21103;-65
2021/06/25 05:24:06;;;;;;;10.03;9.63;;;25.00;94.40;;;;;;3597272;39;20901;-65
2021/06/25 05:26:34;;;;;;;10.50;10.10;;;25.00;94.40;;;;;;3605638;39;20479;-65
2021/06/25 05:29:01;;;;;;;10.90;10.50;;;25.00;94.40;;;;;;3603894;39;20471;-65
2021/06/25 05:31:28;;;;;;;10.47;10.17;;;25.00;94.40;;;;;;3603771;39;20742;-65
2021/06/25 05:33:57;;;;;;;10.50;10.03;;;25.00;94.40;;;;;;3605305;39;20491;-65
2021/06/25 05:36:24;;;;;;;10.50;10.20;;;25.00;94.40;;;;;;3604195;39;20503;-65
2021/06/25 05:38:52;;;;;;;11.00;10.60;;;25.00;94.40;;;;;;3603170;39;20475;-65
2021/06/25 05:41:20;;;;;;;10.10;9.80;;;25.10;94.40;;;;;;3600529;39;20568;-65
2021/06/25 05:43:47;;;;;;;11.33;10.70;;;25.10;94.40;;;;;;3602139;39;20887;-65
2021/06/25 05:46:14;;;;;;;10.57;10.17;;;25.00;94.40;;;;;;3602000;39;20612;-65
2021/06/25 05:48:42;;;;;;;11.27;10.87;;;25.00;94.50;;;;;;3599289;39;20471;-65
2021/06/25 05:51:09;;;;;;;10.90;10.60;;;25.00;94.40;;;;;;3588561;39;20699;-65
2021/06/25 05:53:38;;;;;;;10.80;10.40;;;25.00;94.40;;;;;;3599892;39;20815;-65
2021/06/25 05:56:07;;;;;;;11.30;10.90;;;25.00;94.40;;;;;;3600373;39;20951;-65
2021/06/25 05:58:35;;;;;;;11.17;10.63;;;25.00;94.40;;;;;;3601434;39;20524;-65
2021/06/25 06:01:03;;;;;;;10.50;10.10;;;25.00;94.40;;;;;;3603304;39;20809;-65
2021/06/25 06:03:30;;;;;;;11.30;10.80;;;25.00;94.50;;;;;;3600184;39;20464;-65
2021/06/25 06:05:57;;;;;;;11.47;10.77;;;25.00;94.60;;;;;;3598594;39;20486;-65
2021/06/25 06:08:24;;;;;;;10.40;10.10;;;25.00;94.60;;;;;;3595915;39;20491;-65
2021/06/25 06:10:51;;;;;;;10.43;10.03;;;25.00;94.70;;;;;;3597493;39;20503;-65
2021/06/25 06:13:20;;;;;;;10.60;10.13;;;25.00;94.60;;;;;;3597495;39;20577;-65
2021/06/25 06:15:47;;;;;;;11.33;10.90;;;25.00;94.70;;;;;;3595551;39;20491;-65
2021/06/25 06:18:21;;;;;;;11.10;10.50;;;25.00;94.70;;;;;;3598576;39;20471;-65
2021/06/25 06:20:48;;;;;;;10.47;10.17;;;25.00;94.70;;;;;;3595321;39;20758;-65
2021/06/25 06:31:33;;;;;;;10.23;9.93;;;24.90;94.60;;;;;;3594968;39;20489;-65
2021/06/25 06:34:06;;;;;;;10.70;10.30;;;24.90;94.60;;;;;;3597773;39;20475;-65
2021/06/25 06:36:35;;;;;;;10.30;9.90;;;24.90;94.80;;;;;;3597581;39;20777;-65
2021/06/25 06:39:05;;;;;;;10.53;10.03;;;24.90;94.70;;;;;;3597353;39;20576;-65
2021/06/25 06:41:33;;;;;;;10.30;10.00;;;24.90;94.70;;;;;;3596260;39;20753;-65
2021/06/25 06:44:01;;;;;;;10.47;10.10;;;24.90;94.70;;;;;;3597687;39;20463;-65
2021/06/25 06:46:30;;;;;;;10.10;9.80;;;24.90;94.70;;;;;;3597518;39;20487;-65
2021/06/25 06:48:58;;;;;;;10.27;9.77;;;24.90;94.70;;;;;;3597350;39;20491;-65
2021/06/25 06:51:26;;;;;;;10.60;10.20;;;24.90;94.70;;;;;;3594510;39;20571;-65
2021/06/25 06:53:56;;;;;;;10.10;9.80;;;24.90;94.70;;;;;;3596289;39;20494;-65
2021/06/25 06:56:23;;;;;;;9.80;9.50;;;24.90;94.70;;;;;;3593582;39;20483;-65
2021/06/25 06:58:53;;;;;;;10.47;10.13;;;25.00;94.70;;;;;;3593080;39;20490;-65
2021/06/25 07:01:22;;;;;;;10.40;10.00;;;25.00;94.70;;;;;;3594034;39;21419;-65
2021/06/25 07:03:50;;;;;;;10.30;9.90;;;24.90;94.70;;;;;;3596049;39;20503;-64
2021/06/25 07:06:17;;;;;;;9.60;9.30;;;24.90;94.70;;;;;;3597870;39;20523;-65
2021/06/25 07:08:44;;;;;;;9.57;9.27;;;24.80;95.00;;;;;;3593567;39;20491;-65
2021/06/25 07:11:12;;;;;;;10.60;10.20;;;24.80;95.00;;;;;;3598053;39;20491;-65
2021/06/25 07:13:39;;;;;;;10.00;9.60;;;24.80;95.00;;;;;;3596047;39;21177;-65
2021/06/25 07:16:06;;;;;;;9.60;9.20;;;24.90;95.00;;;;;;3596824;39;20579;-65
2021/06/25 07:18:35;;;;;;;10.20;9.70;;;24.90;94.90;;;;;;3594364;39;20684;-64
2021/06/25 07:21:02;;;;;;;10.20;9.70;;;24.90;95.00;;;;;;3596651;39;20873;-65
2021/06/25 07:23:30;;;;;;;10.70;9.93;;;24.90;95.00;;;;;;3595137;39;20491;-65
2021/06/25 07:25:57;;;;;;;10.40;9.80;;;24.90;95.10;;;;;;3596519;39;20495;-65
2021/06/25 07:28:24;;;;;;;10.10;9.80;;;25.00;95.30;;;;;;3595556;39;20489;-65
2021/06/25 07:30:51;;;;;;;9.37;9.07;;;25.00;95.30;;;;;;3596571;39;20495;-65
2021/06/25 07:33:18;;;;;;;10.27;9.70;;;24.90;95.30;;;;;;3594601;39;20560;-65
2021/06/25 07:35:47;;;;;;;9.50;9.20;;;24.90;95.30;;;;;;3594442;39;20502;-66
2021/06/25 07:38:14;;;;;;;9.50;9.20;;;24.90;95.40;;;;;;3596851;39;20872;-65
2021/06/25 07:40:41;;;;;;;9.90;9.57;;;24.90;95.40;;;;;;3597481;39;20489;-65
2021/06/25 07:43:09;;;;;;;9.53;9.23;;;24.90;95.50;;;;;;3596347;39;20495;-65
2021/06/25 07:45:36;;;;;;;10.33;9.93;;;24.90;95.50;;;;;;3588237;39;20478;-65
2021/06/25 07:48:03;;;;;;;9.90;9.40;;;25.00;95.50;;;;;;3599305;39;20583;-65
2021/06/25 07:50:30;;;;;;;10.17;9.77;;;24.90;95.50;;;;;;3597816;39;20468;-65
2021/06/25 07:52:59;;;;;;;10.80;10.27;;;24.90;95.50;;;;;;3593635;39;20475;-64
2021/06/25 07:55:26;;;;;;;10.60;10.20;;;24.90;95.50;;;;;;3597059;39;20483;-65
2021/06/25 07:57:53;;;;;;;10.03;9.73;;;24.90;95.50;;;;;;3597131;39;20535;-65
2021/06/25 08:00:20;;;;;;;10.43;10.13;;;24.90;95.50;;;;;;3590750;39;20492;-65
2021/06/25 08:02:47;;;;;;;9.80;9.50;;;24.90;95.60;;;;;;3581249;39;20512;-65
2021/06/25 08:05:15;;;;;;;10.03;9.63;;;24.90;95.70;;;;;;3581014;39;20955;-65
2021/06/25 08:07:43;;;;;;;9.90;9.60;;;24.90;95.60;;;;;;3584201;39;20905;-65
2021/06/25 08:10:11;;;;;;;9.80;9.50;;;24.90;95.60;;;;;;3585061;39;20555;-65
2021/06/25 08:12:38;;;;;;;10.27;9.90;;;24.90;95.60;;;;;;3595266;39;20524;-65
2021/06/25 08:15:07;;;;;;;10.53;10.17;;;24.90;95.60;;;;;;3592656;39;20951;-65
2021/06/25 08:17:34;;;;;;;10.70;10.40;;;24.90;95.60;;;;;;3588549;39;21114;-65
2021/06/25 08:20:01;;;;;;;11.23;10.83;;;24.90;95.60;;;;;;3590185;39;21266;-64
2021/06/25 08:22:28;;;;;;;11.03;10.50;;;24.90;95.70;;;;;;3596263;39;20542;-64
2021/06/25 08:24:55;;;;;;;11.30;10.87;;;24.90;95.70;;;;;;3594522;39;20490;-64
2021/06/25 08:27:24;;;;;;;10.80;10.40;;;24.90;95.70;;;;;;3592341;39;20483;-64
2021/06/25 08:29:53;;;;;;;11.10;10.70;;;24.90;95.70;;;;;;3593034;39;20498;-64
2021/06/25 08:32:20;;;;;;;11.53;11.13;;;24.90;95.60;;;;;;3595488;39;20489;-64
2021/06/25 08:34:47;;;;;;;10.77;10.23;;;24.90;95.60;;;;;;3594140;39;20522;-64
2021/06/25 08:37:14;;;;;;;10.40;9.90;;;24.90;95.60;;;;;;3591703;39;20483;-64
2021/06/25 08:39:41;;;;;;;10.70;10.30;;;24.90;95.60;;;;;;3572608;39;20503;-64
2021/06/25 08:42:09;;;;;;;10.83;10.43;;;24.90;95.50;;;;;;3590490;39;21986;-64
2021/06/25 08:44:40;;;;;;;11.13;10.70;;;24.90;95.50;;;;;;3589410;39;20778;-64
2021/06/25 08:47:08;;;;;;;10.77;10.37;;;25.00;95.60;;;;;;3592759;39;20471;-63
2021/06/25 08:49:37;;;;;;;11.10;10.70;;;24.90;95.50;;;;;;3594312;39;20487;-64
2021/06/25 08:52:05;;;;;;;10.80;10.40;;;24.90;95.50;;;;;;3589814;39;20879;-64
2021/06/25 08:54:34;;;;;;;11.10;10.60;;;24.90;95.60;;;;;;3585162;39;20773;-63
2021/06/25 08:57:04;;;;;;;11.10;10.70;;;24.90;95.60;;;;;;3586024;39;20930;-64
2021/06/25 08:59:31;;;;;;;10.80;10.30;;;24.90;95.60;;;;;;3585238;39;20475;-64
2021/06/25 09:01:59;;;;;;;10.80;10.33;;;24.90;95.70;;;;;;3585090;39;20497;-64
2021/06/25 09:04:34;;;;;;;11.10;10.70;;;24.90;95.70;;;;;;3592945;39;20467;-64
2021/06/25 09:07:03;;;;;;;10.97;10.47;;;24.90;95.70;;;;;;3595515;39;20499;-62
2021/06/25 09:09:39;;;;;;;11.70;11.20;;;24.90;95.70;;;;;;3594301;39;20507;-62
2021/06/25 09:12:15;;;;;;;11.37;10.87;;;24.90;95.80;;;;;;3595018;39;20522;-62
2021/06/25 09:14:59;;;;;;;11.50;10.97;;;24.90;95.70;;;;;;3586446;39;21018;-62
2021/06/25 09:17:29;;;;;;;11.60;11.10;;;24.90;95.70;;;;;;3593551;39;20528;-62
2021/06/25 09:19:57;;;;;;;11.57;11.17;;;24.90;95.70;;;;;;3596332;39;20765;-61
2021/06/25 09:22:24;;;;;;;11.30;10.87;;;24.90;95.70;;;;;;3594118;39;20741;-62
2021/06/25 09:25:03;;;;;;;11.47;10.97;;;24.90;95.70;;;;;;3593593;39;20485;-63
2021/06/25 09:27:32;;;;;;;10.77;10.37;;;24.90;95.70;;;;;;3595103;39;20575;-64
2021/06/25 09:29:59;;;;;;;10.33;9.93;;;25.00;95.70;;;;;;3594875;39;20491;-64
2021/06/25 09:32:37;;;;;;;10.90;10.50;;;24.90;95.70;;;;;;3594615;39;20494;-64
2021/06/25 09:35:15;;;;;;;11.20;10.73;;;24.90;95.70;;;;;;3592713;39;20480;-64
2021/06/25 09:37:44;;;;;;;10.80;10.40;;;25.00;95.80;;;;;;3591066;39;20491;-63
2021/06/25 09:40:13;;;;;;;10.97;10.43;;;24.90;95.80;;;;;;3590854;39;20494;-64
2021/06/25 09:42:43;;;;;;;12.40;11.70;;;25.00;95.90;;;;;;3592880;39;20939;-64
2021/06/25 09:45:13;;;;;;;11.27;10.77;;;25.00;96.00;;;;;;3596769;39;20488;-64
2021/06/25 09:47:43;;;;;;;12.73;11.90;;;25.00;96.10;;;;;;3593928;39;20484;-64
2021/06/25 09:50:13;;;;;;;13.03;12.20;;;25.00;96.20;;;;;;3595394;39;20499;-64
2021/06/25 09:52:55;;;;;;;13.20;12.20;;;25.00;96.40;;;;;;3596332;39;20805;-64
2021/06/25 09:55:24;;;;;;;11.87;11.27;;;25.00;96.50;;;;;;3594567;39;20484;-64
2021/06/25 09:58:23;;;;;;;12.60;12.00;;;25.00;96.30;;;;;;3589189;39;20688;-63
2021/06/25 10:03:41;;;;;;;11.67;11.00;;;25.00;96.40;;;;;;3588000;39;20764;-63
2021/06/25 10:06:10;;;;;;;12.47;11.77;;;25.00;96.40;;;;;;3587542;39;20735;-64
2021/06/25 10:08:38;;;;;;;12.83;12.23;;;25.00;96.50;;;;;;3589196;39;20507;-64
2021/06/25 10:11:06;;;;;;;13.03;12.40;;;25.00;96.60;;;;;;3582362;39;20913;-64
2021/06/25 10:13:35;;;;;;;13.80;13.00;;;25.00;96.50;;;;;;3592648;39;21182;-63
2021/06/25 10:16:04;;;;;;;13.43;12.70;;;25.00;96.50;;;;;;3589131;39;21208;-64
2021/06/25 10:18:36;;;;;;;13.27;12.57;;;25.00;96.60;;;;;;3593339;39;20483;-64
2021/06/25 10:21:05;;;;;;;13.50;12.70;;;25.00;96.50;;;;;;3589548;39;20650;-64
2021/06/25 10:23:34;;;;;;;14.00;13.30;;;25.10;96.60;;;;;;3595446;39;20482;-64
2021/06/25 10:26:06;;;;;;;14.20;13.50;;;25.00;96.50;;;;;;3589685;39;20646;-64
2021/06/25 10:28:34;;;;;;;14.50;13.80;;;25.00;96.70;;;;;;3592219;39;20479;-64
2021/06/25 10:31:01;;;;;;;13.57;12.87;;;25.00;96.50;;;;;;3594305;39;20506;-64
2021/06/25 10:33:30;;;;;;;13.67;12.97;;;25.10;96.40;;;;;;3593796;39;20715;-64
2021/06/25 10:35:59;;;;;;;14.40;13.60;;;25.00;96.50;;;;;;3594215;39;20560;-64
2021/06/25 10:38:30;;;;;;;14.70;14.00;;;25.00;96.50;;;;;;3591847;39;20886;-63
2021/06/25 10:40:59;;;;;;;15.30;14.40;;;25.10;96.60;;;;;;3591117;39;20483;-64
2021/06/25 10:43:44;;;;;;;14.83;14.00;;;25.10;96.50;;;;;;3588713;39;20539;-64
2021/06/25 10:46:34;;;;;;;14.83;14.03;;;25.10;96.60;;;;;;3589758;39;20497;-64
2021/06/25 10:49:04;;;;;;;14.07;13.27;;;25.10;96.60;;;;;;3593852;39;20479;-64
2021/06/25 10:51:35;;;;;;;14.20;13.50;;;25.00;96.60;;;;;;3591700;39;20491;-64
2021/06/25 10:54:15;;;;;;;15.97;15.07;;;25.00;96.60;;;;;;3593374;39;20500;-63
2021/06/25 10:56:45;;;;;;;14.60;13.80;;;25.00;96.60;;;;;;3591330;39;20574;-64
2021/06/25 10:59:25;;;;;;;14.77;13.77;;;25.10;96.50;;;;;;3593909;39;20708;-64
2021/06/25 11:01:55;;;;;;;14.90;14.20;;;25.00;96.50;;;;;;3595447;39;20484;-64
2021/06/25 11:04:39;;;;;;;15.20;14.40;;;25.00;96.50;;;;;;3598477;39;20487;-63
2021/06/25 11:07:09;;;;;;;14.00;13.30;;;25.00;96.50;;;;;;3595873;39;21037;-64
2021/06/25 11:10:05;;;;;;;14.37;13.57;;;25.00;96.50;;;;;;3597279;39;20487;-64
2021/06/25 11:12:34;;;;;;;15.10;14.30;;;25.00;96.50;;;;;;3598960;39;20498;-63
2021/06/25 11:15:32;;;;;;;15.70;14.90;;;25.00;96.40;;;;;;3598632;39;20491;-64
2021/06/25 11:18:02;;;;;;;14.57;13.67;;;25.00;96.50;;;;;;3580866;39;21326;-64
2021/06/25 11:20:32;;;;;;;14.00;13.40;;;25.00;96.40;;;;;;3597917;39;20688;-64
2021/06/25 11:23:09;;;;;;;14.03;13.30;;;25.00;96.50;;;;;;3597664;39;20493;-64
2021/06/25 11:25:50;;;;;;;14.80;13.80;;;25.00;96.50;;;;;;3603381;39;20583;-64
2021/06/25 11:28:35;;;;;;;13.90;13.20;;;25.00;96.50;;;;;;3601720;39;20538;-64
2021/06/25 11:31:22;;;;;;;15.00;14.10;;;25.00;96.40;;;;;;3599680;39;20491;-64
2021/06/25 11:33:55;;;;;;;14.53;13.70;;;25.00;96.40;;;;;;3599038;39;20543;-64
2021/06/25 11:36:26;;;;;;;13.87;13.00;;;25.00;96.40;;;;;;3596648;39;20487;-63
2021/06/25 11:39:08;;;;;;;12.73;12.20;;;25.00;96.40;;;;;;3598397;39;20481;-64
2021/06/25 11:41:38;;;;;;;13.60;12.90;;;25.00;96.40;;;;;;3598386;39;20487;-64
2021/06/25 11:44:11;;;;;;;13.40;12.80;;;25.00;96.30;;;;;;3588543;39;20483;-64
2021/06/25 11:46:40;;;;;;;13.33;12.63;;;25.00;96.30;;;;;;3590266;39;20495;-64
2021/06/25 11:49:07;;;;;;;13.60;12.83;;;25.00;96.30;;;;;;3597527;39;21148;-64
2021/06/25 11:51:37;;;;;;;13.53;12.83;;;25.00;96.30;;;;;;3598726;39;20475;-64
2021/06/25 11:54:07;;;;;;;14.20;13.50;;;25.00;96.30;;;;;;3600244;39;20498;-64
2021/06/25 11:56:37;;;;;;;16.23;14.27;;;25.00;96.30;;;;;;3601921;39;20494;-64
2021/06/25 11:59:05;;;;;;;15.20;14.40;;;25.00;96.30;;;;;;3603413;39;20505;-64
2021/06/25 12:01:35;;;;;;;15.00;14.20;;;25.00;96.30;;;;;;3600592;39;20507;-64
2021/06/25 12:04:02;;;;;;;15.87;14.87;;;25.00;96.20;;;;;;3597645;39;20676;-64
2021/06/25 12:06:29;;;;;;;14.73;13.93;;;25.00;96.30;;;;;;3601620;39;20568;-64
2021/06/25 12:09:00;;;;;;;15.53;14.53;;;25.00;96.30;;;;;;3590533;39;20704;-64
2021/06/25 12:11:28;;;;;;;15.50;14.60;;;25.00;96.30;;;;;;3600449;39;20495;-64
2021/06/25 12:14:06;;;;;;;16.50;15.57;;;25.00;96.30;;;;;;3602526;39;20544;-63
2021/06/25 12:16:38;;;;;;;15.20;14.30;;;25.00;96.60;;;;;;3600874;39;20501;-64
2021/06/25 12:19:10;;;;;;;15.93;15.03;;;25.00;96.10;;;;;;3603362;39;20483;-64
2021/06/25 12:21:37;;;;;;;16.50;15.50;;;25.00;96.20;;;;;;3603705;39;20795;-64
2021/06/25 12:24:06;;;;;;;17.00;16.00;;;25.00;96.10;;;;;;3603372;39;20479;-64
2021/06/25 12:26:33;;;;;;;15.77;14.87;;;25.00;96.20;;;;;;3603128;39;20472;-63
2021/06/25 12:29:01;;;;;;;17.30;16.30;;;25.00;96.30;;;;;;3605620;39;20548;-64
2021/06/25 12:31:33;;;;;;;17.93;16.83;;;25.00;96.30;;;;;;3604365;39;21126;-63
2021/06/25 12:34:07;;;;;;;16.13;15.23;;;25.00;96.20;;;;;;3594453;39;20940;-64
2021/06/25 12:36:34;;;;;;;16.90;15.80;;;25.00;96.30;;;;;;3601611;39;20464;-64
2021/06/25 12:39:03;;;;;;;16.70;15.63;;;25.00;96.40;;;;;;3603471;39;20500;-64
2021/06/25 12:41:31;;;;;;;19.07;17.73;;;25.00;96.40;;;;;;3603848;39;20564;-64
2021/06/25 12:43:59;;;;;;;16.60;15.60;;;25.00;96.40;;;;;;3595102;39;20495;-64
2021/06/25 12:46:26;;;;;;;17.87;16.50;;;25.00;96.50;;;;;;3603299;39;20471;-64
2021/06/25 12:48:58;;;;;;;18.73;17.43;;;25.00;96.60;;;;;;3604959;39;20494;-64
2021/06/25 12:51:27;;;;;;;17.77;16.67;;;25.00;96.50;;;;;;3606602;39;20486;-63
2021/06/25 12:53:57;;;;;;;17.80;16.60;;;25.00;96.60;;;;;;3606827;39;20487;-64